Time;durP1;ratioP1;P1;durP2;ratioP2;P2;SDS_P1;SDS_P2;PMS_P1;PMS_P2;Temp;Humidity;BMP_temperature;BMP_pressure;BME280_temperature;BME280_humidity;BME280_pressure;Samples;Min_cycle;Max_cycle;Signal;HPM_P1;HPM_P2
2021/12/04 00:00:42;;;;;;;29.20;24.00;;;;;;;-2.39;56.28;97334.66;103960;1349;22550;-60
2021/12/04 00:03:11;;;;;;;33.60;28.40;;;;;;;-2.38;56.17;97333.88;103978;1351;22472;-60
2021/12/04 00:05:49;;;;;;;37.40;33.20;;;;;;;-2.39;56.26;97329.79;103976;1351;22455;-60
2021/12/04 00:08:17;;;;;;;37.10;32.70;;;;;;;-2.40;56.31;97329.52;103982;1350;23209;-60
2021/12/04 00:10:51;;;;;;;44.70;38.80;;;;;;;-2.43;56.41;97325.63;103985;1351;22449;-60
2021/12/04 00:13:31;;;;;;;42.90;38.20;;;;;;;-2.44;56.39;97331.13;103978;1351;22336;-60
2021/12/04 00:16:00;;;;;;;46.80;41.70;;;;;;;-2.47;56.54;97334.34;103994;1351;22315;-59
2021/12/04 00:18:34;;;;;;;49.30;44.00;;;;;;;-2.50;56.53;97332.01;104017;1351;23026;-60
2021/12/04 00:21:08;;;;;;;43.10;38.00;;;;;;;-2.53;56.64;97322.48;104005;1351;22458;-59
2021/12/04 00:23:41;;;;;;;40.00;33.60;;;;;;;-2.58;56.65;97323.17;103999;1351;23840;-60
2021/12/04 00:26:14;;;;;;;38.10;32.70;;;;;;;-2.64;56.70;97320.75;104013;1351;22590;-60
2021/12/04 00:28:48;;;;;;;33.70;30.10;;;;;;;-2.68;56.79;97325.09;103973;1350;23203;-59
2021/12/04 00:31:22;;;;;;;32.30;28.00;;;;;;;-2.75;56.76;97323.97;104023;1351;22454;-60
2021/12/04 00:33:55;;;;;;;51.70;46.20;;;;;;;-2.80;56.89;97315.48;103993;1351;22030;-59
2021/12/04 00:36:53;;;;;;;68.60;61.60;;;;;;;-2.87;56.78;97311.52;103998;1351;22325;-59
2021/12/04 00:50:49;;;;;;;39.40;35.40;;;;;;;-3.43;57.45;97311.07;103977;1351;22430;-61
2021/12/04 00:53:22;;;;;;;57.20;51.30;;;;;;;-3.46;57.28;97306.12;103993;1351;22306;-59
2021/12/04 00:55:53;;;;;;;46.90;41.70;;;;;;;-3.49;57.46;97308.42;103956;1351;22546;-58
2021/12/04 00:58:30;;;;;;;47.80;42.70;;;;;;;-3.54;57.65;97301.04;103994;1350;22341;-58
2021/12/04 01:01:03;;;;;;;48.20;43.00;;;;;;;-3.55;57.90;97301.42;103998;1349;22417;-58
2021/12/04 01:03:37;;;;;;;49.70;43.20;;;;;;;-3.56;57.92;97304.39;104002;1351;22436;-59
2021/12/04 01:06:12;;;;;;;58.30;47.20;;;;;;;-3.58;58.32;97297.29;104016;1351;22381;-60
2021/12/04 01:08:44;;;;;;;59.30;52.90;;;;;;;-3.58;58.45;97295.17;104003;1351;23177;-60
2021/12/04 01:11:13;;;;;;;54.00;48.50;;;;;;;-3.61;58.34;97296.66;103994;1351;22488;-60
2021/12/04 01:13:52;;;;;;;47.30;42.20;;;;;;;-3.71;58.36;97301.89;104007;1351;23083;-59
2021/12/04 01:16:25;;;;;;;56.20;47.10;;;;;;;-3.91;59.04;97303.28;104005;1351;22428;-60
2021/12/04 01:18:59;;;;;;;45.00;39.10;;;;;;;-4.11;59.27;97301.08;103975;1351;22953;-60
2021/12/04 01:21:33;;;;;;;60.60;54.40;;;;;;;-4.22;59.26;97301.08;104024;1351;23096;-66
2021/12/04 01:24:06;;;;;;;47.40;42.50;;;;;;;-4.24;59.08;97301.49;104011;1351;22306;-61
2021/12/04 01:26:40;;;;;;;45.30;38.00;;;;;;;-4.24;58.95;97302.91;103960;1351;22327;-60
2021/12/04 01:29:14;;;;;;;42.60;36.10;;;;;;;-4.29;59.01;97301.46;103981;1351;22649;-60
2021/12/04 01:31:47;;;;;;;46.10;39.50;;;;;;;-4.28;59.07;97302.42;104013;1351;22328;-60
2021/12/04 01:34:20;;;;;;;44.00;39.20;;;;;;;-4.23;59.17;97303.67;103993;1351;22344;-60
2021/12/04 01:36:50;;;;;;;43.10;38.60;;;;;;;-4.24;59.46;97300.93;104006;1351;22407;-60
2021/12/04 01:39:27;;;;;;;45.80;40.50;;;;;;;-4.27;59.63;97301.13;103988;1351;22355;-61
2021/12/04 01:42:01;;;;;;;49.00;41.40;;;;;;;-4.24;59.82;97298.34;103998;1351;22407;-60
2021/12/04 01:44:34;;;;;;;44.50;40.00;;;;;;;-4.18;59.88;97294.39;103987;1351;23099;-60
2021/12/04 01:47:16;;;;;;;43.70;37.60;;;;;;;-4.15;59.85;97287.72;103990;1351;22425;-60
2021/12/04 01:49:51;;;;;;;40.60;36.20;;;;;;;-4.16;59.90;97280.89;103982;1351;23591;-60
2021/12/04 01:52:31;;;;;;;40.60;36.30;;;;;;;-4.16;60.06;97280.05;103994;1351;22607;-60
2021/12/04 01:55:06;;;;;;;42.90;38.30;;;;;;;-4.35;60.61;97273.34;103989;1351;22703;-60
2021/12/04 01:57:38;;;;;;;41.70;37.30;;;;;;;-4.54;60.55;97272.67;104023;1351;22325;-59
2021/12/04 02:00:12;;;;;;;50.20;45.10;;;;;;;-4.62;60.47;97267.30;104006;1351;23393;-59
2021/12/04 02:02:45;;;;;;;44.00;39.40;;;;;;;-4.67;60.54;97265.73;103993;1351;22420;-60
2021/12/04 02:05:19;;;;;;;52.00;46.60;;;;;;;-4.76;60.53;97257.92;103998;1348;22280;-59
2021/12/04 02:07:52;;;;;;;53.90;48.20;;;;;;;-4.79;60.56;97258.06;104010;1351;22216;-60
2021/12/04 02:10:26;;;;;;;48.50;42.00;;;;;;;-4.77;60.50;97251.95;103991;1351;23088;-60
2021/12/04 02:13:00;;;;;;;37.10;33.10;;;;;;;-4.72;60.88;97247.54;103997;1351;22453;-60
2021/12/04 02:15:33;;;;;;;170.40;113.00;;;;;;;-4.84;61.06;97246.95;103980;1351;22227;-61
2021/12/04 02:18:08;;;;;;;41.80;37.40;;;;;;;-4.91;61.21;97246.15;104003;1351;23157;-60
2021/12/04 02:20:41;;;;;;;46.40;41.20;;;;;;;-4.98;61.31;97242.67;103988;1351;22262;-59
2021/12/04 02:23:14;;;;;;;47.50;42.50;;;;;;;-5.01;61.36;97245.24;101830;1351;3009404;-60
2021/12/04 02:25:48;;;;;;;50.70;45.40;;;;;;;-5.00;61.52;97247.81;103992;1351;22556;-60
2021/12/04 02:28:22;;;;;;;47.50;42.50;;;;;;;-4.99;61.31;97246.06;104007;1351;22475;-60
2021/12/04 02:30:55;;;;;;;51.50;46.40;;;;;;;-4.99;61.55;97245.88;103988;1351;22420;-60
2021/12/04 02:33:29;;;;;;;50.70;45.40;;;;;;;-5.03;61.40;97233.45;103992;1351;22443;-61
2021/12/04 02:36:05;;;;;;;41.10;36.90;;;;;;;-5.18;62.19;97232.69;103992;1351;23147;-60
2021/12/04 02:38:36;;;;;;;42.60;37.90;;;;;;;-5.36;63.00;97228.42;103991;1350;23420;-60
2021/12/04 02:41:09;;;;;;;45.80;40.90;;;;;;;-5.44;63.06;97218.96;104018;1351;22258;-60
2021/12/04 02:43:43;;;;;;;38.70;34.50;;;;;;;-5.40;62.36;97224.82;103985;1351;23107;-60
2021/12/04 02:46:17;;;;;;;37.30;33.50;;;;;;;-5.33;62.59;97221.58;104003;1351;22620;-60
2021/12/04 02:48:50;;;;;;;38.20;34.40;;;;;;;-5.27;62.76;97225.92;104002;1351;22442;-60
2021/12/04 02:51:23;;;;;;;43.90;39.30;;;;;;;-5.23;62.30;97217.76;104000;1351;22340;-60
2021/12/04 02:53:58;;;;;;;66.10;60.00;;;;;;;-5.25;62.18;97210.81;104001;1349;22448;-59
2021/12/04 02:56:31;;;;;;;46.40;41.60;;;;;;;-5.33;62.66;97204.69;103995;1351;22769;-59
2021/12/04 02:59:04;;;;;;;50.60;42.10;;;;;;;-5.38;62.80;97203.84;104012;1351;23073;-60
2021/12/04 03:01:40;;;;;;;44.80;40.20;;;;;;;-5.42;63.24;97202.02;104019;1351;23051;-60
2021/12/04 03:04:13;;;;;;;33.10;29.70;;;;;;;-5.49;63.94;97198.02;103988;1351;22987;-60
2021/12/04 03:06:47;;;;;;;29.70;26.60;;;;;;;-5.54;63.86;97201.82;103953;1351;22326;-60
2021/12/04 03:09:19;;;;;;;30.90;27.70;;;;;;;-5.54;63.93;97201.79;103976;1351;22471;-60
2021/12/04 03:11:53;;;;;;;32.80;29.30;;;;;;;-5.52;63.36;97193.52;104006;1351;22544;-62
2021/12/04 03:14:26;;;;;;;35.10;31.50;;;;;;;-5.48;63.21;97196.80;103951;1351;23074;-59
2021/12/04 03:17:00;;;;;;;36.50;33.00;;;;;;;-5.50;63.42;97189.17;103983;1351;22420;-60
2021/12/04 03:19:34;;;;;;;36.00;32.30;;;;;;;-5.50;63.23;97191.73;104014;1351;23237;-64
2021/12/04 03:22:08;;;;;;;33.80;30.40;;;;;;;-5.49;63.58;97197.83;104008;1351;22361;-59
2021/12/04 03:24:42;;;;;;;29.40;26.50;;;;;;;-5.49;63.53;97191.04;103979;1351;22337;-59
2021/12/04 03:27:16;;;;;;;40.50;36.40;;;;;;;-5.46;63.39;97193.65;104005;1351;22225;-59
2021/12/04 03:29:55;;;;;;;34.40;30.90;;;;;;;-5.51;63.44;97190.62;104002;1351;22343;-59
2021/12/04 03:40:03;;;;;;;36.60;32.80;;;;;;;-5.62;64.11;97182.16;104002;1351;22533;-59
2021/12/04 03:41:06;;;;;;;40.60;36.50;;;;;;;-5.71;65.12;97185.46;104008;1351;22426;-60
2021/12/04 03:43:37;;;;;;;35.10;31.60;;;;;;;-5.73;65.93;97181.08;103995;1351;22425;-60
2021/12/04 03:46:14;;;;;;;28.00;25.10;;;;;;;-5.72;65.20;97175.02;103982;1351;22548;-60
2021/12/04 03:51:20;;;;;;;37.40;33.40;;;;;;;-5.67;65.31;97170.73;103993;1351;22440;-59
2021/12/04 03:53:52;;;;;;;33.70;30.20;;;;;;;-5.67;65.97;97168.69;103993;1351;22319;-59
2021/12/04 03:56:25;;;;;;;26.60;23.80;;;;;;;-5.65;66.02;97169.63;104007;1351;22348;-59
2021/12/04 03:58:59;;;;;;;32.80;29.50;;;;;;;-5.67;66.52;97171.55;103976;1351;22985;-59
2021/12/04 04:01:33;;;;;;;33.60;30.20;;;;;;;-5.73;65.89;97163.92;103991;1351;23024;-58
2021/12/04 04:04:06;;;;;;;39.50;35.60;;;;;;;-5.70;65.83;97163.70;104023;1351;22323;-59
2021/12/04 04:06:39;;;;;;;61.10;55.60;;;;;;;-5.75;65.92;97152.88;103984;1351;22525;-60
2021/12/04 04:09:12;;;;;;;38.80;35.20;;;;;;;-5.79;66.33;97153.23;103979;1351;23053;-59
2021/12/04 04:11:41;;;;;;;43.30;39.20;;;;;;;-5.74;65.77;97153.86;103988;1351;22421;-59
2021/12/04 04:14:14;;;;;;;35.10;31.10;;;;;;;-5.66;65.83;97155.95;103999;1351;22329;-64
2021/12/04 04:16:54;;;;;;;35.20;32.00;;;;;;;-5.64;66.16;97152.20;104015;1351;22449;-59
2021/12/04 04:19:27;;;;;;;26.60;24.20;;;;;;;-5.61;65.61;97149.98;103990;1351;22441;-59
2021/12/04 04:22:02;;;;;;;26.80;24.30;;;;;;;-5.50;65.80;97145.33;103993;1351;22331;-58
2021/12/04 04:24:34;;;;;;;32.50;29.30;;;;;;;-5.40;65.71;97137.29;103992;1351;22285;-60
2021/12/04 04:27:08;;;;;;;28.70;25.80;;;;;;;-5.35;65.53;97132.77;103996;1351;22806;-60
2021/12/04 04:29:36;;;;;;;28.60;25.80;;;;;;;-5.30;65.61;97134.17;103994;1351;22578;-59
2021/12/04 04:32:05;;;;;;;36.90;33.10;;;;;;;-5.26;65.60;97129.65;104000;1351;22429;-61
2021/12/04 04:34:36;;;;;;;43.60;38.30;;;;;;;-5.23;65.53;97124.33;103984;1351;23238;-60
2021/12/04 05:15:36;;;;;;;28.80;25.70;;;;;;;-4.65;65.62;97061.15;104009;1351;23229;-59
2021/12/04 05:20:54;;;;;;;28.90;25.90;;;;;;;-4.50;65.96;97053.92;104008;1351;22421;-59
2021/12/04 05:23:23;;;;;;;29.00;25.40;;;;;;;-4.44;65.88;97054.52;104015;1351;22791;-59
2021/12/04 05:25:51;;;;;;;29.40;26.20;;;;;;;-4.37;65.86;97054.46;104004;1351;22592;-59
2021/12/04 05:28:19;;;;;;;32.80;27.30;;;;;;;-4.32;65.97;97053.67;104003;1351;23170;-59
2021/12/04 05:30:49;;;;;;;31.70;28.30;;;;;;;-4.27;65.85;97049.31;103981;1351;22485;-59
2021/12/04 05:33:17;;;;;;;30.90;27.50;;;;;;;-4.26;65.54;97048.89;104011;1351;23213;-59
2021/12/04 05:35:48;;;;;;;28.80;25.40;;;;;;;-4.21;65.80;97046.52;103998;1351;22474;-59
2021/12/04 05:38:18;;;;;;;30.10;26.80;;;;;;;-4.12;65.67;97049.73;103993;1351;22317;-59
2021/12/04 05:40:46;;;;;;;34.80;31.00;;;;;;;-4.02;66.16;97039.14;103988;1351;22792;-59
2021/12/04 05:43:14;;;;;;;35.70;30.50;;;;;;;-3.94;65.94;97034.95;104006;1351;22364;-60
2021/12/04 05:45:51;;;;;;;46.40;41.60;;;;;;;-3.88;66.21;97038.22;103996;1351;22467;-58
2021/12/04 05:48:39;;;;;;;50.20;45.00;;;;;;;-3.82;66.17;97036.70;103981;1351;22570;-60
2021/12/04 05:54:01;;;;;;;50.40;45.20;;;;;;;-3.66;65.84;97023.30;103844;1351;22418;-60
2021/12/04 05:56:31;;;;;;;44.60;39.80;;;;;;;-3.60;65.76;97020.63;104012;1351;22477;-60
2021/12/04 05:59:01;;;;;;;45.70;35.60;;;;;;;-3.55;65.73;97020.54;104002;1351;22651;-60
2021/12/04 06:01:29;;;;;;;31.70;28.50;;;;;;;-3.50;65.60;97014.11;104010;1351;22313;-59
2021/12/04 06:03:58;;;;;;;31.10;28.10;;;;;;;-3.46;65.63;97015.95;103984;1351;22330;-61
2021/12/04 06:06:27;;;;;;;30.40;27.40;;;;;;;-3.41;65.64;97009.47;103998;1351;23257;-58
2021/12/04 06:08:55;;;;;;;34.70;31.00;;;;;;;-3.39;65.57;97003.52;103958;1351;22365;-60
2021/12/04 06:11:23;;;;;;;74.90;66.90;;;;;;;-3.33;65.58;97003.25;104014;1351;22263;-58
2021/12/04 06:13:52;;;;;;;39.10;35.10;;;;;;;-3.24;65.66;97000.50;103991;1351;22352;-59
2021/12/04 06:16:21;;;;;;;32.50;29.40;;;;;;;-3.15;65.47;96998.40;104003;1351;22415;-59
2021/12/04 06:18:52;;;;;;;29.30;26.50;;;;;;;-3.10;65.49;97002.30;104013;1351;23162;-59
2021/12/04 06:24:08;;;;;;;24.90;22.50;;;;;;;-2.99;65.26;97003.15;103990;1351;22551;-59
2021/12/04 06:26:37;;;;;;;25.60;22.80;;;;;;;-2.97;65.15;97002.92;104014;1351;22526;-59
2021/12/04 06:29:05;;;;;;;26.80;24.20;;;;;;;-2.91;65.22;97002.89;103975;1351;22297;-59
2021/12/04 06:31:33;;;;;;;29.90;26.30;;;;;;;-2.87;65.16;96994.16;103994;1351;22436;-59
2021/12/04 06:34:02;;;;;;;30.40;27.40;;;;;;;-2.82;64.94;96999.16;103998;1351;22572;-57
2021/12/04 06:36:34;;;;;;;31.60;28.40;;;;;;;-2.79;64.91;96997.85;104024;1351;23079;-60
2021/12/04 06:39:04;;;;;;;33.70;30.20;;;;;;;-2.74;64.86;96999.14;103997;1348;22538;-59
2021/12/04 06:41:32;;;;;;;42.40;37.80;;;;;;;-2.73;64.76;96995.43;103955;1351;22995;-59
2021/12/04 06:44:01;;;;;;;56.50;50.90;;;;;;;-2.71;64.82;96990.96;104002;1351;22477;-59
2021/12/04 06:46:30;;;;;;;46.30;41.50;;;;;;;-2.69;64.74;96996.13;104025;1351;22501;-59
2021/12/04 06:49:09;;;;;;;32.50;29.20;;;;;;;-2.65;64.72;96996.39;104009;1351;22393;-58
2021/12/04 06:51:40;;;;;;;29.10;26.00;;;;;;;-2.64;64.65;96995.07;104003;1351;23214;-58
2021/12/04 06:54:15;;;;;;;25.50;22.90;;;;;;;-2.62;64.52;96992.35;104005;1351;23191;-59
2021/12/04 06:56:43;;;;;;;27.80;24.90;;;;;;;-2.58;64.52;96992.06;104003;1351;22330;-58
2021/12/04 06:59:16;;;;;;;27.20;24.20;;;;;;;-2.54;64.48;96996.39;103997;1351;22294;-59
2021/12/04 07:01:44;;;;;;;39.00;33.60;;;;;;;-2.48;64.42;96999.46;103968;1351;22335;-59
2021/12/04 07:04:16;;;;;;;51.80;46.30;;;;;;;-2.40;64.45;96999.62;103989;1351;22462;-58
2021/12/04 07:06:45;;;;;;;94.00;68.40;;;;;;;-2.31;64.43;96996.74;103988;1351;22442;-60
2021/12/04 07:09:13;;;;;;;78.90;64.90;;;;;;;-2.25;64.48;96996.36;103991;1351;23068;-59
2021/12/04 07:11:41;;;;;;;79.20;67.10;;;;;;;-2.20;64.51;97001.73;103984;1351;22521;-60
2021/12/04 07:14:09;;;;;;;78.20;67.30;;;;;;;-2.15;64.50;97000.55;104007;1351;23188;-59
2021/12/04 07:16:37;;;;;;;56.90;50.40;;;;;;;-2.12;64.31;96999.17;104008;1351;22443;-59
2021/12/04 07:19:06;;;;;;;67.20;59.90;;;;;;;-2.13;64.27;96996.52;104018;1351;22375;-60
2021/12/04 07:21:34;;;;;;;50.50;45.00;;;;;;;-2.16;64.38;96998.31;104020;1351;23307;-60
2021/12/04 07:24:03;;;;;;;44.50;39.60;;;;;;;-2.17;64.49;96999.50;103998;1351;22566;-60
2021/12/04 07:26:31;;;;;;;45.70;38.20;;;;;;;-2.10;64.42;97001.05;103970;1345;22487;-58
2021/12/04 07:28:59;;;;;;;104.80;64.80;;;;;;;-2.04;64.26;96995.28;104005;1351;22368;-59
2021/12/04 07:31:29;;;;;;;129.80;74.20;;;;;;;-2.04;64.30;96989.52;104006;1351;22434;-59
2021/12/04 07:34:00;;;;;;;95.10;64.20;;;;;;;-2.01;64.20;96989.63;103999;1351;22434;-59
2021/12/04 07:36:28;;;;;;;68.80;56.30;;;;;;;-1.98;64.09;96994.58;103992;1351;22440;-59
2021/12/04 07:38:58;;;;;;;65.80;56.50;;;;;;;-1.91;64.21;96985.71;104017;1351;22463;-58
2021/12/04 07:41:28;;;;;;;56.80;50.70;;;;;;;-1.84;64.12;96987.14;103862;1351;22756;-59
2021/12/04 07:43:56;;;;;;;59.30;50.20;;;;;;;-1.76;64.08;96983.98;103941;1350;22447;-59
2021/12/04 07:46:24;;;;;;;49.50;43.60;;;;;;;-1.69;63.94;96988.32;103996;1351;22441;-59
2021/12/04 07:48:52;;;;;;;57.20;46.50;;;;;;;-1.60;64.06;96982.58;103969;1351;23129;-59
2021/12/04 07:51:21;;;;;;;58.40;49.30;;;;;;;-1.52;63.98;96979.52;103941;1351;22334;-58
2021/12/04 07:53:49;;;;;;;47.90;42.70;;;;;;;-1.41;63.90;96973.16;103999;1351;22339;-58
2021/12/04 07:56:17;;;;;;;40.50;36.10;;;;;;;-1.29;63.74;96966.18;104000;1349;22303;-57
2021/12/04 07:58:45;;;;;;;37.20;33.40;;;;;;;-1.16;63.81;96961.89;103986;1351;22427;-59
2021/12/04 08:01:13;;;;;;;46.50;32.60;;;;;;;-1.03;63.77;96960.67;104002;1351;22496;-59
2021/12/04 08:03:42;;;;;;;32.60;29.10;;;;;;;-0.92;63.75;96962.13;104007;1351;22454;-59
2021/12/04 08:06:10;;;;;;;33.90;29.00;;;;;;;-0.81;63.50;96960.55;103975;1351;22798;-60
2021/12/04 08:08:38;;;;;;;35.80;30.00;;;;;;;-0.71;63.45;96965.63;104018;1351;22550;-60
2021/12/04 08:11:06;;;;;;;34.40;28.10;;;;;;;-0.61;63.52;96968.10;103991;1351;22388;-60
2021/12/04 08:13:34;;;;;;;33.60;26.40;;;;;;;-0.52;63.32;96968.25;104013;1351;23270;-60
2021/12/04 08:16:03;;;;;;;33.70;25.90;;;;;;;-0.44;63.30;96963.56;104006;1350;22415;-60
2021/12/04 08:18:31;;;;;;;32.10;24.10;;;;;;;-0.38;63.06;96960.96;104004;1351;22335;-60
2021/12/04 08:21:00;;;;;;;42.10;24.00;;;;;;;-0.33;62.92;96957.89;104023;1351;22455;-59
2021/12/04 08:23:28;;;;;;;58.00;30.90;;;;;;;-0.30;63.04;96957.02;103998;1351;22466;-60
2021/12/04 08:25:56;;;;;;;45.80;32.40;;;;;;;-0.27;62.91;96956.61;103999;1351;22373;-60
2021/12/04 08:28:24;;;;;;;41.60;34.00;;;;;;;-0.25;62.69;96955.63;103946;1351;22557;-59
2021/12/04 08:30:55;;;;;;;40.20;32.00;;;;;;;-0.22;62.78;96951.15;103991;1351;23176;-59
2021/12/04 08:33:43;;;;;;;31.90;23.80;;;;;;;-0.18;62.87;96958.43;103970;1351;22462;-60
2021/12/04 08:36:51;;;;;;;36.70;27.60;;;;;;;-0.16;62.71;96957.98;103981;1351;22282;-60
2021/12/04 08:39:40;;;;;;;28.40;22.80;;;;;;;-0.17;62.52;96960.98;103973;1351;22312;-58
2021/12/04 08:42:13;;;;;;;25.20;22.70;;;;;;;-0.16;62.58;96955.33;103987;1351;23220;-58
2021/12/04 08:44:47;;;;;;;24.80;22.20;;;;;;;-0.15;62.53;96951.73;103991;1351;23249;-60
2021/12/04 08:47:21;;;;;;;40.00;21.70;;;;;;;-0.13;62.36;96953.02;104003;1351;22413;-62
2021/12/04 08:49:54;;;;;;;40.30;27.60;;;;;;;-0.07;62.30;96952.80;104003;1351;22515;-60
2021/12/04 08:52:22;;;;;;;27.00;22.90;;;;;;;0.00;62.45;96946.02;103994;1351;22453;-62
2021/12/04 08:54:50;;;;;;;165.10;89.30;;;;;;;0.06;62.18;96946.76;103983;1351;22426;-61
2021/12/04 08:57:23;;;;;;;320.90;164.30;;;;;;;0.11;62.08;96945.14;103987;1351;23092;-60
2021/12/04 09:00:38;;;;;;;39.40;35.10;;;;;;;0.23;62.22;96942.84;103980;1351;22566;-60
2021/12/04 09:03:08;;;;;;;26.40;22.80;;;;;;;0.29;61.99;96940.66;103998;1351;23153;-61
2021/12/04 09:05:42;;;;;;;25.30;22.70;;;;;;;0.37;61.97;96936.56;103956;1351;22425;-60
2021/12/04 09:08:16;;;;;;;26.90;23.50;;;;;;;0.47;62.14;96936.98;104006;1348;22505;-61
2021/12/04 09:10:47;;;;;;;31.90;28.50;;;;;;;0.64;62.00;96931.62;103999;1351;22425;-59
2021/12/04 09:13:16;;;;;;;29.50;26.20;;;;;;;0.74;61.77;96927.15;104016;1351;22406;-60
2021/12/04 09:15:46;;;;;;;36.00;30.40;;;;;;;0.83;61.78;96918.64;103968;1351;22386;-60
2021/12/04 09:18:18;;;;;;;70.70;32.70;;;;;;;0.92;61.54;96921.48;103976;1351;22343;-59
2021/12/04 09:20:53;;;;;;;68.00;61.60;;;;;;;1.01;61.49;96914.52;103989;1351;22445;-60
2021/12/04 09:23:31;;;;;;;56.80;47.00;;;;;;;1.11;61.42;96908.70;103994;1351;22690;-60
2021/12/04 09:26:02;;;;;;;53.60;45.50;;;;;;;1.22;61.33;96908.98;103981;1351;22324;-60
2021/12/04 09:28:50;;;;;;;57.80;41.90;;;;;;;1.30;61.32;96907.30;104011;1351;22317;-60
2021/12/04 10:02:44;;;;;;;20.40;18.20;;;;;;;2.25;59.47;96852.75;103988;1351;22383;-60
2021/12/04 10:11:21;;;;;;;23.10;20.60;;;;;;;2.52;59.44;96845.41;103987;1351;22465;-60
2021/12/04 10:14:01;;;;;;;22.10;19.70;;;;;;;2.80;59.00;96833.11;104008;1351;22334;-61
2021/12/04 10:24:56;;;;;;;18.40;15.40;;;;;;;2.85;58.14;96832.02;103803;1342;256933;-61
2021/12/04 10:32:08;;;;;;;67.80;61.00;;;;;;;2.80;58.04;96823.32;103991;1351;22372;-59
2021/12/04 10:33:44;;;;;;;64.80;57.80;;;;;;;2.68;55.88;96813.95;103987;1349;23029;-60
2021/12/04 10:36:36;;;;;;;27.20;24.30;;;;;;;2.67;56.76;96814.55;103842;1345;137893;-59
2021/12/04 10:39:09;;;;;;;42.50;38.00;;;;;;;2.77;56.70;96812.05;103960;1351;22299;-58
2021/12/04 10:41:43;;;;;;;20.40;17.10;;;;;;;2.89;55.76;96808.15;103962;1351;23191;-60
2021/12/04 10:44:18;;;;;;;32.30;28.50;;;;;;;3.00;55.88;96807.18;103990;1344;22491;-60
2021/12/04 10:47:08;;;;;;;31.80;19.10;;;;;;;3.06;54.24;96800.23;103977;1348;22393;-60
2021/12/04 10:52:48;;;;;;;276.60;157.30;;;;;;;3.32;54.50;96789.59;103865;1349;22458;-61
2021/12/04 10:59:20;;;;;;;19.50;17.10;;;;;;;3.53;54.59;96790.73;103847;1344;22365;-58
2021/12/04 11:01:49;;;;;;;39.90;22.20;;;;;;;3.63;53.10;96777.75;103973;1348;22423;-59
2021/12/04 11:41:55;;;;;;;20.40;12.30;;;;;;;10.81;44.57;96705.10;103814;1351;22371;-59
2021/12/04 11:44:45;;;;;;;32.00;9.50;;;;;;;11.17;43.00;96706.31;103979;1351;22517;-59
2021/12/04 11:47:18;;;;;;;9.90;8.30;;;;;;;10.97;41.35;96698.36;103967;1349;22608;-59
2021/12/04 11:49:51;;;;;;;10.70;8.00;;;;;;;9.90;41.90;96703.10;103992;1349;22439;-59
2021/12/04 11:52:27;;;;;;;11.10;8.70;;;;;;;9.07;40.85;96698.83;103940;1351;22337;-59
2021/12/04 11:55:00;;;;;;;12.10;9.90;;;;;;;8.37;41.17;96699.52;104002;1349;22494;-60
2021/12/04 11:57:36;;;;;;;15.90;11.20;;;;;;;7.85;42.49;96698.00;104010;1351;22330;-63
2021/12/04 12:00:17;;;;;;;15.30;11.80;;;;;;;7.47;42.28;96694.13;104005;1351;22493;-59
2021/12/04 12:03:11;;;;;;;30.00;23.50;;;;;;;7.20;41.58;96681.65;103979;1351;22421;-60
2021/12/04 12:05:56;;;;;;;47.60;36.90;;;;;;;6.94;41.48;96677.35;104009;1348;23700;-59
2021/12/04 12:08:29;;;;;;;399.40;273.70;;;;;;;6.56;41.16;96675.40;104017;1351;23157;-60
2021/12/04 12:11:06;;;;;;;42.20;22.70;;;;;;;6.51;41.26;96669.17;103865;1348;138312;-60
2021/12/04 12:13:43;;;;;;;304.90;223.50;;;;;;;6.66;41.84;96668.36;103987;1349;23122;-61
2021/12/04 12:16:25;;;;;;;16.40;14.70;;;;;;;7.54;41.61;96664.13;103960;1350;23101;-60
2021/12/04 12:19:00;;;;;;;13.30;10.50;;;;;;;7.94;41.56;96664.88;103972;1351;22439;-60
2021/12/04 12:21:52;;;;;;;18.10;16.00;;;;;;;8.04;40.97;96661.53;103834;1352;137882;-61
2021/12/04 12:33:37;;;;;;;21.60;16.70;;;;;;;9.66;41.68;96646.20;103932;1352;22323;-61
2021/12/04 12:36:23;;;;;;;48.10;27.30;;;;;;;10.38;40.95;96646.23;103920;1352;22317;-60
2021/12/04 12:39:11;;;;;;;53.40;42.10;;;;;;;10.99;40.53;96644.99;103894;1353;22337;-61
2021/12/04 12:41:48;;;;;;;24.60;20.00;;;;;;;10.76;41.08;96644.41;103946;1352;23139;-61
2021/12/04 12:44:23;;;;;;;12.30;10.60;;;;;;;10.54;40.33;96645.23;103931;1354;22432;-61
2021/12/04 12:46:57;;;;;;;155.40;108.50;;;;;;;10.30;40.46;96645.69;103937;1354;22539;-61
2021/12/04 12:49:30;;;;;;;35.40;31.60;;;;;;;10.37;40.20;96643.42;103939;1351;23630;-60
2021/12/04 12:52:18;;;;;;;72.70;57.60;;;;;;;10.36;40.04;96641.35;103802;1351;137803;-58
2021/12/04 12:55:05;;;;;;;188.20;111.90;;;;;;;9.79;39.90;96642.95;103923;1353;22303;-58
2021/12/04 12:57:39;;;;;;;87.50;47.00;;;;;;;8.91;40.13;96649.63;103938;1354;22854;-59
2021/12/04 13:11:47;;;;;;;25.00;21.00;;;;;;;5.83;40.70;96650.55;103873;1351;22679;-59
2021/12/04 13:14:19;;;;;;;17.20;13.40;;;;;;;5.32;40.70;96651.18;103916;1353;23539;-59
2021/12/04 13:17:08;;;;;;;23.40;15.90;;;;;;;4.91;39.35;96652.05;103919;1352;22425;-60
2021/12/04 13:19:43;;;;;;;32.10;20.20;;;;;;;4.48;40.82;96655.34;103915;1354;22512;-57
2021/12/04 13:22:21;;;;;;;39.70;31.70;;;;;;;4.22;40.78;96655.17;103815;1352;138385;-59
2021/12/04 13:24:54;;;;;;;47.70;41.80;;;;;;;3.95;40.77;96660.44;103909;1354;23565;-58
2021/12/04 13:29:58;;;;;;;40.80;36.30;;;;;;;3.59;41.03;96668.27;103918;1353;23087;-59
2021/12/04 13:32:29;;;;;;;;;;;;;;;3.48;41.50;96674.56;103934;1354;23384;-59
2021/12/04 13:35:04;;;;;;;41.50;32.70;;;;;;;3.37;42.04;96677.77;103930;1354;22430;-58
2021/12/04 13:37:33;;;;;;;36.10;31.60;;;;;;;3.31;41.76;96672.78;103915;1354;22276;-59
2021/12/04 13:40:05;;;;;;;27.80;24.90;;;;;;;3.20;41.27;96675.22;103881;1354;22996;-58
2021/12/04 13:42:36;;;;;;;27.30;23.90;;;;;;;3.11;41.48;96675.83;103919;1352;22951;-60
2021/12/04 13:45:08;;;;;;;22.30;19.90;;;;;;;3.03;41.54;96672.98;103925;1354;22485;-58
2021/12/04 13:47:37;;;;;;;21.70;19.40;;;;;;;2.95;41.64;96672.57;103925;1354;22563;-60
2021/12/04 13:50:44;;;;;;;20.20;17.80;;;;;;;2.91;41.80;96673.24;103908;1352;22444;-60
2021/12/04 13:53:32;;;;;;;27.70;18.90;;;;;;;2.85;41.94;96672.33;103921;1351;22458;-59
2021/12/04 13:56:22;;;;;;;37.40;26.90;;;;;;;2.82;42.32;96674.16;103789;1354;137987;-58
2021/12/04 13:58:54;;;;;;;43.70;39.20;;;;;;;2.83;42.18;96675.86;103928;1353;22324;-57
2021/12/04 14:01:24;;;;;;;31.90;28.60;;;;;;;2.79;42.11;96669.42;103877;1353;22287;-57
2021/12/04 14:03:57;;;;;;;122.90;82.40;;;;;;;2.76;42.22;96672.38;103896;1354;22485;-57
2021/12/04 14:06:27;;;;;;;135.10;89.60;;;;;;;2.74;42.44;96673.55;103924;1354;22240;-58
2021/12/04 14:09:06;;;;;;;92.50;70.80;;;;;;;2.74;42.54;96676.93;103929;1353;22278;-58
2021/12/04 14:11:38;;;;;;;39.80;35.60;;;;;;;2.75;42.55;96672.73;103937;1353;22308;-58
2021/12/04 14:14:11;;;;;;;46.40;40.50;;;;;;;2.73;42.56;96669.23;103912;1350;22552;-59
2021/12/04 14:16:41;;;;;;;44.60;37.30;;;;;;;2.71;42.66;96667.02;103933;1351;22367;-59
2021/12/04 14:19:21;;;;;;;42.30;35.80;;;;;;;2.67;42.99;96667.04;103942;1351;22447;-58
2021/12/04 14:22:21;;;;;;;34.60;30.40;;;;;;;2.66;43.01;96663.23;103962;1353;23206;-59
2021/12/04 14:24:56;;;;;;;36.40;31.00;;;;;;;2.63;42.84;96659.70;103895;1349;22658;-59
2021/12/04 14:27:26;;;;;;;37.20;33.20;;;;;;;2.59;43.28;96655.36;103934;1350;22298;-59
2021/12/04 14:30:00;;;;;;;39.00;35.20;;;;;;;2.62;43.41;96657.66;103935;1354;23518;-59
2021/12/04 14:32:32;;;;;;;90.70;80.40;;;;;;;2.60;43.56;96658.91;103936;1351;22875;-60
2021/12/04 14:35:09;;;;;;;61.80;55.40;;;;;;;2.59;43.88;96660.62;103938;1352;22445;-60
2021/12/04 14:37:42;;;;;;;50.80;40.40;;;;;;;2.60;43.94;96663.17;103946;1352;22685;-60
2021/12/04 14:40:18;;;;;;;39.20;29.60;;;;;;;2.55;43.51;96662.83;103916;1353;23494;-60
2021/12/04 14:42:48;;;;;;;45.40;36.40;;;;;;;2.49;43.98;96661.44;103938;1352;22478;-60
2021/12/04 14:45:25;;;;;;;39.30;35.00;;;;;;;2.45;44.00;96660.61;103954;1352;22719;-60